Time;durP1;ratioP1;P1;durP2;ratioP2;P2;SDS_P1;SDS_P2;PMS_P1;PMS_P2;Temp;Humidity;BMP_temperature;BMP_pressure;BME280_temperature;BME280_humidity;BME280_pressure;Samples;Min_cycle;Max_cycle;Signal;HPM_P1;HPM_P2
2023/05/09 00:02:25;;;;;;;32.07;22.73;;;17.50;99.90;;;;;;5078600;28;20211;-83
2023/05/09 00:04:50;;;;;;;33.37;21.60;;;17.40;1.00;;;;;;5077591;28;20174;-83
2023/05/09 00:07:16;;;;;;;31.80;22.53;;;17.40;99.90;;;;;;5076120;28;20190;-83
2023/05/09 00:09:42;;;;;;;42.23;23.70;;;17.40;1.00;;;;;;5077782;28;20181;-83
2023/05/09 00:12:08;;;;;;;34.40;22.13;;;17.40;1.00;;;;;;5082359;28;20326;-82
2023/05/09 00:14:33;;;;;;;32.93;21.40;;;17.30;1.00;;;;;;5077978;28;20250;-83
2023/05/09 00:16:59;;;;;;;29.53;21.80;;;17.30;1.00;;;;;;5076559;28;20490;-83
2023/05/09 00:19:25;;;;;;;28.73;22.37;;;17.30;1.00;;;;;;5087450;28;20205;-83
2023/05/09 00:21:50;;;;;;;31.40;21.73;;;17.30;1.00;;;;;;5099951;28;20440;-83
2023/05/09 00:24:16;;;;;;;31.60;23.60;;;17.30;1.00;;;;;;5081339;28;20178;-83
2023/05/09 00:26:42;;;;;;;32.73;22.63;;;17.30;1.00;;;;;;5078766;28;20197;-82
2023/05/09 00:29:07;;;;;;;33.20;23.93;;;17.30;1.00;;;;;;5078669;28;20192;-83
2023/05/09 00:31:33;;;;;;;28.93;21.67;;;17.30;1.00;;;;;;5079476;28;20193;-82
2023/05/09 00:33:58;;;;;;;34.03;21.23;;;17.30;1.00;;;;;;5077326;28;20182;-83
2023/05/09 00:36:24;;;;;;;26.90;19.80;;;17.30;1.00;;;;;;5077788;28;20252;-84
2023/05/09 00:38:49;;;;;;;35.63;22.80;;;17.20;1.00;;;;;;5069571;28;20229;-81
2023/05/09 00:41:15;;;;;;;36.43;21.60;;;17.20;1.00;;;;;;5074939;28;20231;-83
2023/05/09 00:43:40;;;;;;;34.87;22.73;;;17.30;1.00;;;;;;5078902;28;20708;-83
2023/05/09 00:46:06;;;;;;;28.33;20.67;;;17.30;1.00;;;;;;5077313;28;20303;-82
2023/05/09 00:48:32;;;;;;;36.33;21.23;;;17.30;1.00;;;;;;5084550;28;20196;-83
2023/05/09 00:50:57;;;;;;;36.30;23.47;;;17.30;1.00;;;;;;5083988;28;20245;-83
2023/05/09 00:53:24;;;;;;;34.83;22.83;;;17.30;1.00;;;;;;5078924;28;20220;-83
2023/05/09 00:55:49;;;;;;;34.10;22.50;;;17.30;1.00;;;;;;5077636;28;20175;-83
2023/05/09 00:58:15;;;;;;;29.00;21.03;;;17.30;1.00;;;;;;5075751;28;20972;-83
2023/05/09 01:00:42;;;;;;;32.40;22.57;;;17.20;1.00;;;;;;5077187;28;20214;-83
2023/05/09 01:03:08;;;;;;;36.20;23.53;;;17.20;1.00;;;;;;5078284;28;20504;-83
2023/05/09 01:05:47;;;;;;;34.00;22.40;;;17.20;1.00;;;;;;5077964;28;20460;-83
2023/05/09 01:08:43;;;;;;;34.77;22.83;;;17.20;1.00;;;;;;5072123;28;20434;-84
2023/05/09 01:11:10;;;;;;;35.10;21.67;;;17.20;1.00;;;;;;5073299;28;20414;-83
2023/05/09 01:13:48;;;;;;;34.60;23.77;;;17.10;1.00;;;;;;5078349;28;20469;-83
2023/05/09 01:16:29;;;;;;;37.73;24.83;;;17.10;1.00;;;;;;5078714;28;20659;-83
2023/05/09 01:19:16;;;;;;;38.07;24.10;;;17.10;1.00;;;;;;5078820;28;20515;-83
2023/05/09 01:21:47;;;;;;;30.17;22.70;;;17.10;1.00;;;;;;5088941;28;20424;-83
2023/05/09 01:24:24;;;;;;;35.00;23.00;;;17.10;1.00;;;;;;5087652;28;20520;-83
2023/05/09 01:26:56;;;;;;;30.13;23.33;;;17.10;1.00;;;;;;5069122;28;20901;-83
2023/05/09 01:29:47;;;;;;;32.80;21.77;;;17.10;1.00;;;;;;5076354;28;20435;-83
2023/05/09 01:32:21;;;;;;;32.60;23.40;;;17.20;1.00;;;;;;5070383;28;20968;-82
2023/05/09 01:34:50;;;;;;;35.67;22.37;;;17.10;1.00;;;;;;5077142;28;20415;-82
2023/05/09 01:37:18;;;;;;;33.53;22.60;;;17.20;1.00;;;;;;5078485;28;20455;-83
2023/05/09 01:39:48;;;;;;;31.00;21.80;;;17.20;1.00;;;;;;5076261;28;20415;-83
2023/05/09 01:42:17;;;;;;;30.13;21.30;;;17.20;1.00;;;;;;5075467;28;20447;-83
2023/05/09 01:44:45;;;;;;;34.70;22.37;;;17.20;1.00;;;;;;5076358;28;20936;-83
2023/05/09 01:47:11;;;;;;;33.70;22.70;;;17.20;1.00;;;;;;5076891;28;20524;-82
2023/05/09 01:49:40;;;;;;;32.93;21.97;;;17.20;1.00;;;;;;5076427;28;20809;-81
2023/05/09 01:52:16;;;;;;;32.23;21.00;;;17.20;1.00;;;;;;5079636;28;20455;-82
2023/05/09 01:54:44;;;;;;;32.20;21.10;;;17.20;1.00;;;;;;5079130;28;20412;-83
2023/05/09 01:57:10;;;;;;;36.23;22.27;;;17.30;1.00;;;;;;5071842;28;20463;-82
2023/05/09 01:59:40;;;;;;;31.97;22.63;;;17.30;1.00;;;;;;5076274;28;20447;-83
2023/05/09 02:02:06;;;;;;;31.67;21.47;;;17.20;1.00;;;;;;5071878;28;20478;-82
2023/05/09 02:04:32;;;;;;;27.90;21.67;;;17.20;1.00;;;;;;5077232;28;20419;-82
2023/05/09 02:06:59;;;;;;;31.53;22.10;;;17.20;1.00;;;;;;5075508;28;20439;-83
2023/05/09 02:09:25;;;;;;;33.60;22.70;;;17.20;1.00;;;;;;5076287;28;20443;-83
2023/05/09 02:11:51;;;;;;;31.37;22.50;;;17.20;1.00;;;;;;5075070;28;20454;-83
2023/05/09 02:14:16;;;;;;;33.63;23.70;;;17.20;1.00;;;;;;5077033;28;20264;-83
2023/05/09 02:16:42;;;;;;;34.17;22.23;;;17.20;1.00;;;;;;5076334;28;20208;-83
2023/05/09 02:19:08;;;;;;;34.93;22.27;;;17.20;1.00;;;;;;5085064;28;20184;-82
2023/05/09 02:21:34;;;;;;;36.23;24.07;;;17.20;1.00;;;;;;5078961;28;20426;-83
2023/05/09 02:23:59;;;;;;;34.90;23.70;;;17.10;1.00;;;;;;5070218;28;20173;-83
2023/05/09 02:26:25;;;;;;;35.33;23.60;;;17.20;1.00;;;;;;5080312;28;20447;-83
2023/05/09 02:28:52;;;;;;;34.50;23.43;;;17.20;1.00;;;;;;5076555;28;20220;-83
2023/05/09 02:31:19;;;;;;;35.40;23.07;;;17.20;1.00;;;;;;5076370;28;20461;-81
2023/05/09 02:33:46;;;;;;;33.77;23.43;;;17.20;1.00;;;;;;5069610;28;20435;-84
2023/05/09 02:36:13;;;;;;;36.03;22.20;;;17.20;1.00;;;;;;5077091;28;20527;-83
2023/05/09 02:38:40;;;;;;;38.37;23.83;;;17.20;1.00;;;;;;5075754;28;20947;-83
2023/05/09 02:41:06;;;;;;;35.73;23.13;;;17.20;1.00;;;;;;5077292;28;20407;-82
2023/05/09 02:43:32;;;;;;;35.43;22.40;;;17.20;1.00;;;;;;5074084;28;20477;-83
2023/05/09 02:45:57;;;;;;;37.83;24.83;;;17.10;1.00;;;;;;5071373;28;20774;-83
2023/05/09 02:48:23;;;;;;;32.40;22.07;;;17.10;1.00;;;;;;5087094;28;20577;-83
2023/05/09 02:50:48;;;;;;;35.03;23.60;;;17.10;1.00;;;;;;5076188;28;20739;-83
2023/05/09 02:53:14;;;;;;;36.40;24.90;;;17.10;1.00;;;;;;5078225;28;20245;-82
2023/05/09 02:55:39;;;;;;;34.17;23.37;;;17.00;14.80;;;;;;5080773;28;20549;-83
2023/05/09 02:58:05;;;;;;;33.00;24.47;;;17.00;9.80;;;;;;5080713;28;20205;-83
2023/05/09 03:00:30;;;;;;;36.90;23.60;;;17.10;1.00;;;;;;5079640;28;20520;-82
2023/05/09 03:02:56;;;;;;;31.10;22.13;;;17.00;13.20;;;;;;5078064;28;20202;-81
2023/05/09 03:05:22;;;;;;;32.90;22.93;;;17.00;1.30;;;;;;5092371;28;20598;-81
2023/05/09 03:07:48;;;;;;;31.50;23.57;;;17.00;1.00;;;;;;5084419;28;20569;-84
2023/05/09 03:10:13;;;;;;;34.80;23.67;;;17.00;1.00;;;;;;5080606;28;20174;-83
2023/05/09 03:12:39;;;;;;;33.17;22.00;;;17.00;1.00;;;;;;5080359;28;20431;-82
2023/05/09 03:15:08;;;;;;;33.83;23.63;;;17.00;1.00;;;;;;5077585;28;20189;-84
2023/05/09 03:17:34;;;;;;;31.60;24.23;;;17.00;1.00;;;;;;5081928;28;20209;-82
2023/05/09 03:20:00;;;;;;;32.43;23.03;;;17.00;1.00;;;;;;5098783;28;20482;-83
2023/05/09 03:22:25;;;;;;;35.20;23.60;;;17.00;1.00;;;;;;5076142;28;20463;-83
2023/05/09 03:24:51;;;;;;;33.93;25.30;;;17.00;1.00;;;;;;5080100;28;20183;-83
2023/05/09 03:27:16;;;;;;;37.80;25.50;;;16.90;1.00;;;;;;5080434;28;20193;-82
2023/05/09 03:29:42;;;;;;;36.07;23.70;;;16.80;3.20;;;;;;5080455;28;20185;-82
2023/05/09 03:32:07;;;;;;;34.03;23.40;;;16.80;62.70;;;;;;5079218;28;20205;-82
2023/05/09 03:34:33;;;;;;;34.53;24.43;;;16.80;98.90;;;;;;5075862;28;20185;-82
2023/05/09 03:36:58;;;;;;;34.53;22.60;;;16.80;69.00;;;;;;5082743;28;20250;-82
2023/05/09 03:39:24;;;;;;;30.00;23.37;;;16.90;50.60;;;;;;5079948;28;20205;-84
2023/05/09 03:41:49;;;;;;;36.20;24.07;;;16.90;14.80;;;;;;5083558;28;20201;-83
2023/05/09 03:44:15;;;;;;;35.07;22.17;;;16.90;2.90;;;;;;5079070;28;20188;-83
2023/05/09 03:46:40;;;;;;;33.93;24.07;;;17.00;1.00;;;;;;5077139;28;20229;-83
2023/05/09 03:49:06;;;;;;;36.60;23.00;;;17.00;30.40;;;;;;5079206;28;20188;-85
2023/05/09 03:51:32;;;;;;;31.93;22.40;;;17.00;86.20;;;;;;5079672;28;20664;-82
2023/05/09 03:53:58;;;;;;;37.93;22.77;;;16.90;99.90;;;;;;5078340;28;20177;-81
2023/05/09 03:56:24;;;;;;;38.13;24.43;;;16.90;99.90;;;;;;5091937;28;20205;-82
2023/05/09 03:58:50;;;;;;;42.30;26.10;;;16.80;99.90;;;;;;5078509;28;20420;-83
2023/05/09 04:01:16;;;;;;;37.33;25.20;;;16.70;99.90;;;;;;5078664;28;20415;-83
2023/05/09 04:03:41;;;;;;;41.53;27.10;;;16.60;99.90;;;;;;5073695;28;20333;-83
2023/05/09 04:06:07;;;;;;;42.73;25.97;;;16.60;99.90;;;;;;5077965;28;20282;-82
2023/05/09 04:08:33;;;;;;;41.83;26.90;;;16.50;99.90;;;;;;5079515;28;20177;-83
2023/05/09 04:10:58;;;;;;;42.00;28.10;;;16.40;99.90;;;;;;5078662;28;20242;-83
2023/05/09 04:13:24;;;;;;;40.87;26.70;;;16.40;99.90;;;;;;5079787;28;20218;-83
2023/05/09 04:15:50;;;;;;;35.17;24.67;;;16.40;99.90;;;;;;5081234;28;20592;-82
2023/05/09 04:18:15;;;;;;;45.97;25.57;;;16.40;99.90;;;;;;5074470;28;20184;-83
2023/05/09 04:20:41;;;;;;;38.60;26.87;;;16.40;99.90;;;;;;5096831;28;20430;-83
2023/05/09 04:23:06;;;;;;;41.40;26.47;;;16.40;99.90;;;;;;5099566;28;20274;-82
2023/05/09 04:25:34;;;;;;;39.33;25.80;;;16.50;99.90;;;;;;5080006;28;20313;-83
2023/05/09 04:27:59;;;;;;;46.00;27.87;;;16.50;99.90;;;;;;5080637;28;20181;-82
2023/05/09 04:30:26;;;;;;;41.80;24.70;;;16.60;99.90;;;;;;5077266;28;20436;-83
2023/05/09 04:32:54;;;;;;;37.77;24.27;;;16.60;99.90;;;;;;5082315;28;20230;-83
2023/05/09 04:35:21;;;;;;;39.87;27.10;;;16.70;99.90;;;;;;5079341;28;20427;-82
2023/05/09 04:37:47;;;;;;;38.37;24.00;;;16.70;99.90;;;;;;5076907;28;20490;-83
2023/05/09 04:40:12;;;;;;;32.37;24.07;;;16.80;99.90;;;;;;5079617;28;20426;-82
2023/05/09 04:42:39;;;;;;;38.93;25.83;;;16.90;99.90;;;;;;5079993;28;20964;-82
2023/05/09 04:45:05;;;;;;;50.30;27.57;;;16.90;99.90;;;;;;5077286;28;20188;-83
2023/05/09 04:47:30;;;;;;;41.30;25.60;;;16.90;99.90;;;;;;5077222;28;20588;-83
2023/05/09 04:49:56;;;;;;;37.00;25.67;;;17.00;99.90;;;;;;5089372;28;20417;-82
2023/05/09 04:52:22;;;;;;;38.40;25.70;;;17.00;99.90;;;;;;5098659;28;20578;-83
2023/05/09 04:54:47;;;;;;;37.67;25.50;;;17.10;99.90;;;;;;5097444;28;20182;-83
2023/05/09 04:57:13;;;;;;;42.70;26.70;;;17.20;99.90;;;;;;5080106;28;20650;-83
2023/05/09 04:59:38;;;;;;;39.57;26.70;;;17.30;99.90;;;;;;5075631;28;20603;-83
2023/05/09 05:02:04;;;;;;;39.63;24.97;;;17.40;88.80;;;;;;5079065;28;20193;-83
2023/05/09 05:04:30;;;;;;;44.03;26.23;;;17.40;43.10;;;;;;5079021;28;20173;-84
2023/05/09 05:06:56;;;;;;;33.87;24.20;;;17.50;1.00;;;;;;5073754;28;20267;-84
2023/05/09 05:09:21;;;;;;;36.63;24.03;;;17.70;1.00;;;;;;5079224;28;20444;-84
2023/05/09 05:11:47;;;;;;;40.93;26.67;;;17.80;1.00;;;;;;5077015;28;20210;-84
2023/05/09 05:14:12;;;;;;;45.53;26.83;;;17.90;99.90;;;;;;5074170;28;20191;-84
2023/05/09 05:16:38;;;;;;;32.10;24.80;;;18.00;98.60;;;;;;5081047;28;20216;-84
2023/05/09 05:19:03;;;;;;;39.23;25.40;;;18.00;1.00;;;;;;5077859;28;20180;-83
2023/05/09 05:21:29;;;;;;;35.77;24.67;;;18.00;1.00;;;;;;5087671;28;20173;-83
2023/05/09 05:23:55;;;;;;;35.27;23.93;;;18.10;1.00;;;;;;5080395;28;20240;-83
2023/05/09 05:26:20;;;;;;;37.03;24.53;;;18.20;1.00;;;;;;5077184;28;20265;-84
2023/05/09 05:28:46;;;;;;;44.47;26.87;;;18.30;99.90;;;;;;5077795;28;20188;-84
2023/05/09 05:31:12;;;;;;;36.90;25.53;;;18.30;99.90;;;;;;5078167;28;20181;-83
2023/05/09 05:33:37;;;;;;;44.60;25.60;;;18.30;99.90;;;;;;5077499;28;20755;-82
2023/05/09 05:36:03;;;;;;;36.43;24.63;;;18.30;99.90;;;;;;5077206;28;20595;-84
2023/05/09 05:38:28;;;;;;;36.73;25.40;;;18.20;99.90;;;;;;5081464;28;20187;-84
2023/05/09 05:40:54;;;;;;;35.13;25.50;;;18.10;99.90;;;;;;5077482;28;20463;-82
2023/05/09 05:43:19;;;;;;;36.93;25.90;;;18.00;1.00;;;;;;5074259;28;20230;-82
2023/05/09 05:45:45;;;;;;;41.60;26.10;;;18.00;1.00;;;;;;5077913;28;20198;-85
2023/05/09 05:48:10;;;;;;;37.90;25.53;;;18.00;1.00;;;;;;5076610;28;20203;-82
2023/05/09 05:50:36;;;;;;;40.90;24.70;;;18.10;1.00;;;;;;5075817;28;20184;-82
2023/05/09 05:53:02;;;;;;;36.10;26.47;;;18.20;99.90;;;;;;5075087;28;20210;-83
2023/05/09 05:55:27;;;;;;;38.40;25.20;;;18.40;21.20;;;;;;5082374;28;20220;-83
2023/05/09 05:57:53;;;;;;;38.03;26.83;;;18.60;1.00;;;;;;5077559;28;20221;-83
2023/05/09 06:00:19;;;;;;;34.63;24.13;;;18.90;1.00;;;;;;5076802;28;20187;-82
2023/05/09 06:02:46;;;;;;;36.47;25.37;;;19.10;99.90;;;;;;5082913;28;20210;-81
2023/05/09 06:05:12;;;;;;;34.83;24.20;;;19.40;1.00;;;;;;5076337;28;20441;-82
2023/05/09 06:07:39;;;;;;;30.60;23.50;;;19.70;1.00;;;;;;5077274;28;20457;-83
2023/05/09 06:10:06;;;;;;;30.73;23.57;;;20.00;99.90;;;;;;5081357;28;20188;-82
2023/05/09 06:12:32;;;;;;;32.17;24.27;;;20.20;1.00;;;;;;5082572;28;20504;-83
2023/05/09 06:14:58;;;;;;;36.97;24.53;;;20.40;99.90;;;;;;5073511;28;20480;-82
2023/05/09 06:17:23;;;;;;;34.10;25.03;;;20.60;72.80;;;;;;5077240;28;20478;-83
2023/05/09 06:19:49;;;;;;;31.90;24.20;;;20.80;1.00;;;;;;5079435;28;20196;-83
2023/05/09 06:22:15;;;;;;;34.53;24.90;;;21.10;1.00;;;;;;5074922;28;20205;-83
2023/05/09 06:24:40;;;;;;;36.73;25.13;;;21.20;99.90;;;;;;5075981;28;20273;-83
2023/05/09 06:27:06;;;;;;;38.97;25.87;;;21.20;99.90;;;;;;5085454;28;20216;-84
2023/05/09 06:29:31;;;;;;;39.70;26.50;;;21.10;13.70;;;;;;5087868;28;20687;-85
2023/05/09 06:31:57;;;;;;;40.20;26.70;;;21.20;1.00;;;;;;5080629;28;20230;-84
2023/05/09 06:34:22;;;;;;;38.00;27.63;;;21.20;1.00;;;;;;5083415;28;20566;-84
2023/05/09 06:36:48;;;;;;;41.90;26.97;;;21.30;1.00;;;;;;5085639;28;20209;-83
2023/05/09 06:39:13;;;;;;;41.23;25.90;;;21.40;1.00;;;;;;5082466;28;20194;-84
2023/05/09 06:41:39;;;;;;;39.87;27.73;;;21.60;1.00;;;;;;5080637;28;20195;-84
2023/05/09 06:44:05;;;;;;;38.87;25.20;;;21.90;1.00;;;;;;5083274;28;20192;-84
2023/05/09 06:46:30;;;;;;;40.27;27.00;;;22.20;1.00;;;;;;5079494;28;20216;-84
2023/05/09 06:48:56;;;;;;;42.80;30.83;;;22.60;1.00;;;;;;5078403;28;20554;-84
2023/05/09 06:51:21;;;;;;;45.83;33.03;;;23.00;1.00;;;;;;5077005;28;20190;-83
2023/05/09 06:53:47;;;;;;;40.93;29.90;;;23.20;99.90;;;;;;5083672;28;20181;-84
2023/05/09 06:56:12;;;;;;;41.00;28.60;;;24.00;99.90;;;;;;5084834;28;20267;-84
2023/05/09 06:58:38;;;;;;;40.53;28.63;;;25.70;99.90;;;;;;5082134;28;20180;-83
2023/05/09 07:01:03;;;;;;;35.93;28.33;;;27.00;99.90;;;;;;5079122;28;20192;-86
2023/05/09 07:03:29;;;;;;;31.10;23.80;;;28.30;99.90;;;;;;5089644;28;20215;-84
2023/05/09 07:05:57;;;;;;;28.73;25.00;;;29.40;99.90;;;;;;5081539;28;20211;-85
2023/05/09 07:08:23;;;;;;;34.50;26.90;;;29.50;99.90;;;;;;5086037;28;20473;-85
2023/05/09 07:10:49;;;;;;;31.70;23.53;;;29.30;99.90;;;;;;5080127;28;20466;-84
2023/05/09 07:13:15;;;;;;;30.57;24.70;;;29.00;99.90;;;;;;5081550;28;20977;-85
2023/05/09 07:15:40;;;;;;;32.43;26.17;;;28.80;99.90;;;;;;5076352;28;20193;-83
2023/05/09 07:18:06;;;;;;;30.23;24.00;;;29.00;99.90;;;;;;5085468;28;20200;-84
2023/05/09 07:20:31;;;;;;;26.07;22.00;;;29.70;99.90;;;;;;5083889;28;20184;-84
2023/05/09 07:22:57;;;;;;;26.97;21.17;;;31.50;99.90;;;;;;5083041;28;20204;-85
2023/05/09 07:25:23;;;;;;;22.17;19.77;;;33.30;99.90;;;;;;5080217;28;20186;-84
2023/05/09 07:27:48;;;;;;;20.90;18.70;;;34.80;99.90;;;;;;5080039;28;20204;-85
2023/05/09 07:30:14;;;;;;;19.10;16.50;;;36.70;99.90;;;;;;5084416;28;20199;-85
2023/05/09 07:32:39;;;;;;;22.43;17.63;;;38.20;99.90;;;;;;5084526;28;20224;-84
2023/05/09 07:35:05;;;;;;;23.00;18.53;;;38.60;99.90;;;;;;5079637;28;20181;-84
2023/05/09 07:37:31;;;;;;;24.00;17.70;;;39.20;99.90;;;;;;5076897;28;20204;-84
2023/05/09 07:39:56;;;;;;;16.97;14.60;;;39.60;99.90;;;;;;5093682;28;20191;-84
2023/05/09 07:42:22;;;;;;;18.70;15.77;;;40.40;99.90;;;;;;5086754;28;20207;-85
2023/05/09 07:44:48;;;;;;;16.83;15.10;;;41.10;99.90;;;;;;5101509;28;20184;-82
2023/05/09 07:47:13;;;;;;;17.83;16.13;;;41.10;99.90;;;;;;5087820;28;20221;-84
2023/05/09 07:49:39;;;;;;;18.87;16.87;;;41.00;99.90;;;;;;5090763;28;20181;-84
2023/05/09 07:52:05;;;;;;;19.17;17.17;;;40.00;99.90;;;;;;5087705;28;20720;-84
2023/05/09 07:54:30;;;;;;;16.73;15.03;;;40.10;99.90;;;;;;5083729;28;20426;-85
2023/05/09 07:56:56;;;;;;;15.90;14.20;;;40.60;99.90;;;;;;5080146;28;20180;-84
2023/05/09 07:59:21;;;;;;;19.43;14.83;;;41.00;99.90;;;;;;5080525;28;20182;-85
2023/05/09 08:01:47;;;;;;;15.43;13.57;;;41.20;99.90;;;;;;5082244;28;20669;-85
2023/05/09 08:04:13;;;;;;;15.60;14.20;;;41.60;99.90;;;;;;5080771;28;20206;-84
2023/05/09 08:06:38;;;;;;;15.60;13.60;;;41.50;99.90;;;;;;5082135;28;20273;-83
2023/05/09 08:09:04;;;;;;;17.27;14.33;;;41.00;99.90;;;;;;5072922;28;20399;-85
2023/05/09 08:11:33;;;;;;;16.83;15.10;;;40.30;99.90;;;;;;5061106;28;20212;-85
2023/05/09 08:13:58;;;;;;;17.27;14.27;;;39.40;99.90;;;;;;5071569;28;20181;-84
2023/05/09 08:16:24;;;;;;;22.87;15.57;;;37.90;99.90;;;;;;5074841;28;20504;-85
2023/05/09 08:18:49;;;;;;;19.13;16.53;;;36.90;99.90;;;;;;5087740;28;20188;-84
2023/05/09 08:21:15;;;;;;;17.80;14.97;;;35.80;99.90;;;;;;5080210;28;20184;-83
2023/05/09 08:23:41;;;;;;;18.20;14.87;;;35.10;99.90;;;;;;5085913;28;20585;-84
2023/05/09 08:26:06;;;;;;;14.70;12.03;;;34.80;99.90;;;;;;5077434;28;20197;-84
2023/05/09 08:28:32;;;;;;;11.57;9.90;;;35.70;99.90;;;;;;5077320;28;20188;-85
2023/05/09 08:30:58;;;;;;;16.43;14.13;;;36.40;99.90;;;;;;5074607;28;20184;-84
2023/05/09 08:33:23;;;;;;;15.93;14.20;;;37.00;99.90;;;;;;5082984;28;20948;-83
2023/05/09 08:35:52;;;;;;;14.87;13.37;;;37.40;99.90;;;;;;5073971;28;20212;-83
2023/05/09 08:38:18;;;;;;;14.27;12.90;;;37.70;99.90;;;;;;5080433;28;20232;-84
2023/05/09 08:40:44;;;;;;;13.60;12.17;;;38.20;99.90;;;;;;5088704;28;20419;-83
2023/05/09 08:43:11;;;;;;;15.33;13.83;;;38.20;99.90;;;;;;5072881;28;20467;-83
2023/05/09 08:45:45;;;;;;;14.10;12.63;;;37.60;99.90;;;;;;5085525;28;20180;-85
2023/05/09 08:48:14;;;;;;;12.47;11.17;;;37.90;99.90;;;;;;5088588;28;20547;-84
2023/05/09 08:50:40;;;;;;;15.33;12.40;;;37.40;99.90;;;;;;5072581;28;20515;-84
2023/05/09 08:53:06;;;;;;;13.67;10.63;;;36.80;99.90;;;;;;5075902;28;20482;-84
2023/05/09 08:55:31;;;;;;;9.90;8.90;;;37.00;99.90;;;;;;5076831;28;20235;-83
2023/05/09 08:57:57;;;;;;;9.70;8.53;;;37.10;99.90;;;;;;5075962;28;20866;-83
2023/05/09 09:00:25;;;;;;;11.77;8.50;;;36.30;99.90;;;;;;5076324;28;20208;-84
2023/05/09 09:02:51;;;;;;;9.20;7.43;;;35.50;99.90;;;;;;5079975;28;20466;-84
2023/05/09 09:05:17;;;;;;;9.03;7.57;;;35.40;99.90;;;;;;5087811;28;20422;-84
2023/05/09 09:07:44;;;;;;;8.93;7.53;;;34.90;99.90;;;;;;5083261;28;20494;-85
2023/05/09 09:10:12;;;;;;;9.17;7.50;;;34.10;99.90;;;;;;5088211;28;20269;-84
2023/05/09 09:12:38;;;;;;;7.50;6.83;;;33.10;99.90;;;;;;5093748;28;20446;-83
2023/05/09 09:15:06;;;;;;;8.63;6.43;;;32.40;99.90;;;;;;5090171;28;20427;-84
2023/05/09 09:17:32;;;;;;;7.47;6.77;;;31.50;99.90;;;;;;5077416;28;20459;-82
2023/05/09 09:20:01;;;;;;;7.73;5.83;;;30.70;99.90;;;;;;5089493;28;20450;-82
2023/05/09 09:22:33;;;;;;;9.87;7.03;;;30.10;99.90;;;;;;5082120;28;20572;-81
2023/05/09 09:25:02;;;;;;;10.37;6.30;;;30.20;99.90;;;;;;5073270;28;20431;-84
2023/05/09 09:27:28;;;;;;;8.40;6.40;;;30.40;99.90;;;;;;5094560;28;20461;-84
2023/05/09 09:29:54;;;;;;;6.53;5.93;;;30.40;99.90;;;;;;5078703;28;20967;-83
2023/05/09 09:32:21;;;;;;;6.70;5.53;;;30.70;99.90;;;;;;5082571;28;20191;-84
2023/05/09 09:34:50;;;;;;;6.53;5.90;;;30.50;99.90;;;;;;5077345;28;20691;-84
2023/05/09 09:37:22;;;;;;;8.20;5.27;;;30.50;99.90;;;;;;5084799;28;20470;-84
2023/05/09 09:39:57;;;;;;;8.13;5.60;;;30.00;99.90;;;;;;5087491;28;20430;-84
2023/05/09 09:42:22;;;;;;;7.03;5.80;;;29.30;99.90;;;;;;5094327;28;20434;-84
2023/05/09 09:45:08;;;;;;;11.13;6.50;;;28.80;99.90;;;;;;5075116;28;20446;-85
2023/05/09 09:47:34;;;;;;;6.83;5.57;;;28.50;99.90;;;;;;5076080;28;20253;-84
2023/05/09 09:50:12;;;;;;;9.40;6.00;;;28.70;99.90;;;;;;5085174;28;20474;-83
2023/05/09 09:52:43;;;;;;;8.07;5.40;;;29.60;99.90;;;;;;5071258;28;20719;-84
2023/05/09 09:55:09;;;;;;;4.80;4.27;;;30.90;99.90;;;;;;5101465;28;20475;-84
2023/05/09 09:57:36;;;;;;;5.53;4.40;;;31.70;99.90;;;;;;5100603;28;20493;-84
2023/05/09 10:00:03;;;;;;;5.27;4.13;;;31.70;99.90;;;;;;5081918;28;20192;-84
2023/05/09 10:02:28;;;;;;;8.57;3.77;;;31.10;99.90;;;;;;5080465;28;20485;-85
2023/05/09 10:04:54;;;;;;;5.10;4.60;;;30.20;99.90;;;;;;5090660;28;20426;-82
2023/05/09 10:07:22;;;;;;;4.50;4.10;;;29.20;99.90;;;;;;5073456;28;20212;-84
2023/05/09 10:09:48;;;;;;;5.43;4.77;;;28.30;99.90;;;;;;5069699;28;20347;-83
2023/05/09 10:12:18;;;;;;;8.20;5.23;;;27.60;99.90;;;;;;5077672;28;20491;-84
2023/05/09 10:14:44;;;;;;;6.43;4.87;;;27.10;99.90;;;;;;5075380;28;20177;-84
2023/05/09 10:17:13;;;;;;;5.20;4.70;;;26.70;99.90;;;;;;5087209;28;20446;-84
2023/05/09 10:19:44;;;;;;;5.80;4.77;;;26.50;99.90;;;;;;5078282;28;20559;-83
2023/05/09 10:22:13;;;;;;;5.50;4.63;;;26.50;99.90;;;;;;5070103;28;21205;-83
2023/05/09 10:24:47;;;;;;;7.80;5.30;;;26.50;99.90;;;;;;5076803;28;20458;-83
2023/05/09 10:27:14;;;;;;;6.73;6.03;;;26.70;99.90;;;;;;5082057;28;20552;-82
2023/05/09 10:29:44;;;;;;;6.63;5.40;;;27.20;99.90;;;;;;5075016;28;20438;-82
2023/05/09 10:32:27;;;;;;;5.70;4.60;;;27.70;99.90;;;;;;5076699;28;20438;-84
2023/05/09 10:35:00;;;;;;;6.40;5.13;;;28.70;99.90;;;;;;5085226;28;20776;-83
2023/05/09 10:37:27;;;;;;;7.07;4.73;;;29.70;99.90;;;;;;5066820;28;20489;-83
2023/05/09 10:39:54;;;;;;;4.63;4.23;;;30.20;99.90;;;;;;5073511;28;20920;-83
2023/05/09 10:42:21;;;;;;;5.67;4.17;;;30.40;99.90;;;;;;5089958;28;20875;-82
2023/05/09 10:44:48;;;;;;;5.17;3.80;;;30.80;99.90;;;;;;5078498;28;20549;-83
2023/05/09 10:47:14;;;;;;;5.00;4.33;;;30.90;99.90;;;;;;5072643;28;20543;-83
2023/05/09 10:49:41;;;;;;;5.23;4.73;;;30.80;99.90;;;;;;5080572;28;20419;-84
2023/05/09 10:52:06;;;;;;;4.87;4.23;;;30.80;99.90;;;;;;5072454;28;20463;-82
2023/05/09 10:54:35;;;;;;;4.87;4.40;;;31.00;99.90;;;;;;5072225;28;20963;-84
2023/05/09 10:57:01;;;;;;;6.67;4.87;;;31.10;99.90;;;;;;5067896;28;20264;-84
2023/05/09 10:59:41;;;;;;;7.50;4.43;;;31.00;99.90;;;;;;5081806;28;20983;-83
2023/05/09 11:02:17;;;;;;;4.97;4.43;;;30.70;99.90;;;;;;5073772;28;20213;-84
2023/05/09 11:04:44;;;;;;;5.37;4.87;;;30.50;99.90;;;;;;5087694;28;20528;-83
2023/05/09 11:07:26;;;;;;;6.10;5.10;;;30.10;99.90;;;;;;5072807;28;20505;-83
2023/05/09 11:10:14;;;;;;;14.33;5.10;;;29.90;99.90;;;;;;5079207;28;20424;-83
2023/05/09 11:12:53;;;;;;;4.33;3.93;;;29.70;99.90;;;;;;5084390;28;20505;-83
2023/05/09 11:15:19;;;;;;;5.53;5.03;;;29.50;99.90;;;;;;5085777;28;20486;-84
2023/05/09 11:18:03;;;;;;;6.10;5.00;;;29.10;99.90;;;;;;5090955;28;20418;-83
2023/05/09 11:20:28;;;;;;;5.67;5.17;;;28.60;99.90;;;;;;5064292;28;20176;-84
2023/05/09 11:22:57;;;;;;;7.63;5.10;;;27.90;99.90;;;;;;5074992;28;20544;-83
2023/05/09 11:25:28;;;;;;;7.50;5.37;;;27.10;99.90;;;;;;5093162;28;20226;-84
2023/05/09 11:27:59;;;;;;;7.00;6.30;;;26.50;99.90;;;;;;5095808;28;20955;-84
2023/05/09 11:30:39;;;;;;;6.00;5.47;;;26.00;99.90;;;;;;5090910;28;20426;-84
2023/05/09 11:33:08;;;;;;;6.90;6.20;;;25.50;99.90;;;;;;5077463;28;20456;-84
2023/05/09 11:35:36;;;;;;;8.57;7.30;;;25.10;99.90;;;;;;5069663;28;20500;-83
2023/05/09 11:38:06;;;;;;;7.80;6.80;;;24.90;99.90;;;;;;5079994;28;20429;-82
2023/05/09 11:40:33;;;;;;;7.73;6.77;;;24.80;99.90;;;;;;5073494;28;20441;-83
2023/05/09 11:43:00;;;;;;;8.70;6.57;;;24.80;99.90;;;;;;5079660;28;20462;-84
2023/05/09 11:45:30;;;;;;;8.67;6.70;;;24.80;99.90;;;;;;5088441;28;20819;-84
2023/05/09 11:47:56;;;;;;;9.10;7.20;;;24.80;99.90;;;;;;5092274;28;20482;-84
2023/05/09 11:50:22;;;;;;;7.93;7.07;;;24.90;99.90;;;;;;5086440;28;20450;-83
2023/05/09 11:52:49;;;;;;;7.40;6.70;;;24.80;99.90;;;;;;5067686;28;20497;-82
2023/05/09 11:55:17;;;;;;;9.30;7.33;;;24.80;99.90;;;;;;5078769;28;20445;-83
2023/05/09 11:57:48;;;;;;;8.33;7.53;;;24.60;99.90;;;;;;5089271;28;20449;-83
2023/05/09 12:00:22;;;;;;;7.73;7.03;;;24.50;99.90;;;;;;5079797;28;20438;-84
2023/05/09 12:02:48;;;;;;;9.63;7.77;;;24.50;99.90;;;;;;5087603;28;20508;-85
2023/05/09 12:05:16;;;;;;;10.30;7.97;;;24.40;99.90;;;;;;5084405;28;20452;-83
2023/05/09 12:07:42;;;;;;;7.93;6.80;;;24.20;99.90;;;;;;5085269;28;20542;-84
2023/05/09 12:10:09;;;;;;;8.30;7.53;;;24.00;99.90;;;;;;5077406;28;20425;-83
2023/05/09 12:12:43;;;;;;;12.60;8.77;;;23.90;99.90;;;;;;5089643;28;20209;-83
2023/05/09 12:15:09;;;;;;;10.10;8.60;;;24.00;99.90;;;;;;5072312;28;20444;-84
2023/05/09 12:17:35;;;;;;;10.10;9.20;;;24.00;99.90;;;;;;5080989;28;20813;-83
2023/05/09 12:20:03;;;;;;;10.90;9.80;;;23.90;99.90;;;;;;5091640;28;20419;-82
2023/05/09 12:22:29;;;;;;;10.77;9.73;;;23.80;99.90;;;;;;5084715;28;20491;-84
2023/05/09 12:24:55;;;;;;;12.73;10.17;;;23.80;99.90;;;;;;5082094;28;20493;-82
2023/05/09 12:27:21;;;;;;;13.27;10.63;;;23.60;99.90;;;;;;5083825;28;20648;-83
2023/05/09 12:29:47;;;;;;;12.70;11.40;;;23.40;99.90;;;;;;5089892;28;20439;-82
2023/05/09 12:32:16;;;;;;;12.70;11.37;;;23.20;99.90;;;;;;5079023;28;20995;-83
2023/05/09 12:34:44;;;;;;;12.67;11.33;;;23.20;99.90;;;;;;5083429;28;20206;-82
2023/05/09 12:37:17;;;;;;;12.67;11.37;;;23.30;99.90;;;;;;5079937;28;20948;-81